createdAt,value
2019-06-10T00:00:42.384Z,63.12
2019-06-10T00:03:12.499Z,62.68
2019-06-10T00:05:42.628Z,62.92
2019-06-10T00:08:12.876Z,62.95
2019-06-10T00:10:43.015Z,62.95
2019-06-10T00:13:13.137Z,62.71
2019-06-10T00:15:43.273Z,62.30
2019-06-10T00:18:34.082Z,62.12
2019-06-10T00:20:45.235Z,62.79
2019-06-10T00:23:15.707Z,62.15
2019-06-10T00:25:45.843Z,62.37
2019-06-10T00:28:15.969Z,62.08
2019-06-10T00:30:46.109Z,61.85
2019-06-10T00:33:16.239Z,61.97
2019-06-10T00:35:46.371Z,61.78
2019-06-10T00:38:16.490Z,61.59
2019-06-10T00:40:46.635Z,61.63
2019-06-10T00:43:16.771Z,61.51
2019-06-10T00:45:47.095Z,61.42
2019-06-10T00:48:28.294Z,61.30
2019-06-10T00:50:51.810Z,61.60
2019-06-10T00:53:22.021Z,62.11
2019-06-10T00:55:52.608Z,62.46
2019-06-10T00:58:22.743Z,62.17
2019-06-10T01:00:52.883Z,62.24
2019-06-10T01:03:23.031Z,62.54
2019-06-10T01:05:53.159Z,62.16
2019-06-10T01:08:23.275Z,62.12
2019-06-10T01:10:53.810Z,62.12
2019-06-10T01:13:23.967Z,62.05
2019-06-10T01:15:54.199Z,61.98
2019-06-10T01:18:34.732Z,62.45
2019-06-10T01:20:56.151Z,62.27
2019-06-10T01:23:26.328Z,62.07
2019-06-10T01:25:56.467Z,61.96
2019-06-10T01:28:26.579Z,62.00
2019-06-10T01:30:56.716Z,61.83
2019-06-10T01:33:26.835Z,61.89
2019-06-10T01:35:56.955Z,62.45
2019-06-10T01:38:27.075Z,62.19
2019-06-10T01:40:57.215Z,61.94
2019-06-10T01:43:27.340Z,62.27
2019-06-10T01:45:57.671Z,62.63
2019-06-10T01:48:40.521Z,62.99
2019-06-10T01:51:01.845Z,62.80
2019-06-10T01:53:31.815Z,62.78
2019-06-10T01:56:01.981Z,62.82
2019-06-10T01:58:32.164Z,62.94
2019-06-10T02:01:16.192Z,63.17
2019-06-10T02:03:44.239Z,63.56
2019-06-10T02:06:16.584Z,64.00
2019-06-10T02:08:46.190Z,64.06
2019-06-10T02:11:18.771Z,63.84
2019-06-10T02:13:48.231Z,64.09
2019-06-10T02:16:19.467Z,64.09
2019-06-10T02:19:00.050Z,64.01
2019-06-10T02:21:24.525Z,63.86
2019-06-10T02:23:54.963Z,64.09
2019-06-10T02:26:25.127Z,64.38
2019-06-10T02:28:56.379Z,64.37
2019-06-10T02:31:30.354Z,64.33
2019-06-10T02:33:58.385Z,64.84
2019-06-10T02:36:31.669Z,64.89
2019-06-10T02:39:00.328Z,65.50
2019-06-10T02:41:35.370Z,65.01
2019-06-10T02:44:04.273Z,63.46
2019-06-10T02:46:36.381Z,62.20
2019-06-10T02:49:23.359Z,61.55
2019-06-10T02:51:38.373Z,60.72
2019-06-10T02:54:08.652Z,59.89
2019-06-10T02:56:38.780Z,57.75
2019-06-10T02:59:08.891Z,56.35
2019-06-10T03:01:39.030Z,54.76
2019-06-10T03:04:09.142Z,52.73
2019-06-10T03:06:40.487Z,52.05
2019-06-10T03:09:14.190Z,52.00
2019-06-10T03:11:44.846Z,52.18
2019-06-10T03:14:15.810Z,52.78
2019-06-10T03:16:52.701Z,53.51
2019-06-10T03:19:39.746Z,54.02
2019-06-10T03:21:54.134Z,54.55
2019-06-10T03:24:25.353Z,55.58
2019-06-10T03:26:55.570Z,56.48
2019-06-10T03:29:26.910Z,57.06
2019-06-10T03:31:57.612Z,57.77
2019-06-10T03:34:36.027Z,57.13
2019-06-10T03:37:02.473Z,56.12
2019-06-10T03:39:32.392Z,55.46
2019-06-10T03:42:02.534Z,55.45
2019-06-10T03:44:33.091Z,55.72
2019-06-10T03:47:03.395Z,55.23
2019-06-10T03:49:46.643Z,54.74
2019-06-10T03:52:05.398Z,54.74
2019-06-10T03:54:35.526Z,55.45
2019-06-10T03:57:06.649Z,55.86
2019-06-10T03:59:36.790Z,55.50
2019-06-10T04:02:07.128Z,56.66
2019-06-10T04:04:37.251Z,55.79
2019-06-10T04:07:07.415Z,56.25
2019-06-10T04:09:37.545Z,55.93
2019-06-10T04:12:07.701Z,55.36
2019-06-10T04:14:37.832Z,55.87
2019-06-10T04:17:08.013Z,55.98
2019-06-10T04:19:38.427Z,56.22
2019-06-10T04:22:08.698Z,54.98
2019-06-10T04:24:38.856Z,55.30
2019-06-10T04:27:12.146Z,55.90
2019-06-10T04:29:42.247Z,55.42
2019-06-10T04:32:12.539Z,56.21
2019-06-10T04:34:43.345Z,56.49
2019-06-10T04:37:13.668Z,56.41
2019-06-10T04:39:43.803Z,56.51
2019-06-10T04:42:13.931Z,56.80
2019-06-10T04:44:44.095Z,56.78
2019-06-10T04:47:14.267Z,56.97
2019-06-10T04:49:44.480Z,57.41
2019-06-10T04:52:14.613Z,57.07
2019-06-10T04:54:44.736Z,55.74
2019-06-10T04:57:14.877Z,55.87
2019-06-10T04:59:45.047Z,56.39
2019-06-10T05:02:16.404Z,56.00
2019-06-10T05:04:46.540Z,54.96
2019-06-10T05:07:16.675Z,54.64
2019-06-10T05:09:46.808Z,54.65
2019-06-10T05:12:16.981Z,54.31
2019-06-10T05:14:47.123Z,54.66
2019-06-10T05:17:17.332Z,54.20
2019-06-10T05:19:47.456Z,52.56
2019-06-10T05:22:17.588Z,52.14
2019-06-10T05:24:47.711Z,51.22
2019-06-10T05:27:17.871Z,51.18
2019-06-10T05:29:48.032Z,49.80
2019-06-10T05:32:18.167Z,49.21
2019-06-10T05:34:48.335Z,48.33
2019-06-10T05:37:18.463Z,47.60
2019-06-10T05:39:48.617Z,47.06
2019-06-10T05:42:18.831Z,46.60
2019-06-10T05:44:48.975Z,45.65
2019-06-10T05:47:19.120Z,45.44
2019-06-10T05:49:52.929Z,45.51
2019-06-10T05:52:24.905Z,45.01
2019-06-10T05:54:55.181Z,45.04
2019-06-10T05:57:25.782Z,44.86
2019-06-10T05:59:58.371Z,44.44
2019-06-10T06:02:29.815Z,43.32
2019-06-10T06:05:02.546Z,42.67
2019-06-10T06:07:34.324Z,42.64
2019-06-10T06:10:05.186Z,41.76
2019-06-10T06:12:35.791Z,42.35
2019-06-10T06:15:08.920Z,41.69
2019-06-10T06:17:39.086Z,42.03
2019-06-10T06:20:09.631Z,41.63
2019-06-10T06:22:39.797Z,41.67
2019-06-10T06:25:10.433Z,40.88
2019-06-10T06:27:42.104Z,40.79
2019-06-10T06:30:18.435Z,41.47
2019-06-10T06:32:45.835Z,40.64
2019-06-10T06:35:16.119Z,40.26
2019-06-10T06:37:46.258Z,39.77
2019-06-10T06:40:17.313Z,39.18
2019-06-10T06:42:47.491Z,38.70
2019-06-10T06:45:17.693Z,37.72
2019-06-10T06:47:47.840Z,37.65
2019-06-10T06:50:18.083Z,38.07
2019-06-10T06:53:18.722Z,37.90
2019-06-10T06:55:23.255Z,36.74
2019-06-10T06:57:52.971Z,37.38
2019-06-10T07:00:50.985Z,36.57
2019-06-10T07:03:04.624Z,37.13
2019-06-10T07:05:35.943Z,36.46
2019-06-10T07:08:07.644Z,36.46
2019-06-10T07:10:38.876Z,37.06
2019-06-10T07:13:09.992Z,36.54
2019-06-10T07:15:47.056Z,36.56
2019-06-10T07:18:15.188Z,36.96
2019-06-10T07:20:45.958Z,37.72
2019-06-10T07:23:16.370Z,36.89
2019-06-10T07:25:47.592Z,35.90
2019-06-10T07:28:17.915Z,35.51
2019-06-10T07:30:52.684Z,35.88
2019-06-10T07:33:19.884Z,35.68
2019-06-10T07:35:52.514Z,35.89
2019-06-10T07:38:26.132Z,35.18
2019-06-10T07:40:54.737Z,34.90
2019-06-10T07:43:24.881Z,34.97
2019-06-10T07:45:55.027Z,35.48
2019-06-10T07:48:25.195Z,35.63
2019-06-10T07:50:55.316Z,35.87
2019-06-10T07:53:25.655Z,35.75
2019-06-10T07:55:55.794Z,35.32
2019-06-10T07:58:25.918Z,35.86
2019-06-10T08:00:56.108Z,35.77
2019-06-10T08:03:26.253Z,35.13
2019-06-10T08:05:56.387Z,34.94
2019-06-10T08:08:26.721Z,34.26
2019-06-10T08:10:56.854Z,34.80
2019-06-10T08:13:26.981Z,33.71
2019-06-10T08:15:57.102Z,33.85
2019-06-10T08:18:27.269Z,34.17
2019-06-10T08:20:57.407Z,33.75
2019-06-10T08:23:27.543Z,34.15
2019-06-10T08:25:58.056Z,34.09
2019-06-10T08:28:29.364Z,33.75
2019-06-10T08:30:59.503Z,33.47
2019-06-10T08:33:29.657Z,33.36
2019-06-10T08:36:01.583Z,33.82
2019-06-10T08:38:32.910Z,34.48
2019-06-10T08:41:03.488Z,34.86
2019-06-10T08:43:33.587Z,33.92
2019-06-10T08:46:03.725Z,34.15
2019-06-10T08:48:33.868Z,34.08
2019-06-10T08:51:04.172Z,33.07
2019-06-10T08:53:34.467Z,33.29
2019-06-10T08:56:04.818Z,33.14
2019-06-10T08:58:34.978Z,33.54
2019-06-10T09:01:05.091Z,33.55
2019-06-10T09:03:35.259Z,34.15
2019-06-10T09:06:05.371Z,32.94
2019-06-10T09:08:35.619Z,33.37
2019-06-10T09:11:05.745Z,32.92
2019-06-10T09:13:35.874Z,32.13
2019-06-10T09:16:15.665Z,32.99
2019-06-10T09:18:39.488Z,31.02
2019-06-10T09:21:09.676Z,32.52
2019-06-10T09:23:41.129Z,31.33
2019-06-10T09:26:12.499Z,31.35
2019-06-10T09:28:47.159Z,31.16
2019-06-10T09:31:14.688Z,30.16
2019-06-10T09:33:50.246Z,30.17
2019-06-10T09:36:16.646Z,30.81
2019-06-10T09:38:48.734Z,31.12
2019-06-10T09:41:18.600Z,31.61
2019-06-10T09:43:51.954Z,31.14
2019-06-10T09:46:23.280Z,31.74
2019-06-10T09:48:56.646Z,30.82
2019-06-10T09:51:28.115Z,31.29
2019-06-10T09:54:05.615Z,31.25
2019-06-10T09:56:30.268Z,31.73
2019-06-10T09:59:00.455Z,28.62
2019-06-10T10:01:32.646Z,30.43
2019-06-10T10:04:04.737Z,29.48
2019-06-10T10:06:35.196Z,28.81
2019-06-10T10:09:06.960Z,29.99
2019-06-10T10:11:37.092Z,30.99
2019-06-10T10:14:10.409Z,29.18
2019-06-10T10:16:39.119Z,29.79
2019-06-10T10:19:12.893Z,30.75
2019-06-10T10:21:47.710Z,29.31
2019-06-10T10:24:15.105Z,29.00
2019-06-10T10:26:48.560Z,28.27
2019-06-10T10:29:17.291Z,29.42
2019-06-10T10:31:50.734Z,28.47
2019-06-10T10:34:22.840Z,29.24
2019-06-10T10:36:56.957Z,28.88
2019-06-10T10:39:24.639Z,29.25
2019-06-10T10:41:57.039Z,29.80
2019-06-10T10:44:26.813Z,28.80
2019-06-10T10:46:56.940Z,30.36
2019-06-10T10:49:27.064Z,28.23
2019-06-10T10:51:57.256Z,28.61
2019-06-10T10:54:34.098Z,28.22
2019-06-10T10:57:02.625Z,30.23
2019-06-10T10:59:33.241Z,28.56
2019-06-10T11:02:03.526Z,28.97
2019-06-10T11:04:35.868Z,28.41
2019-06-10T11:07:06.003Z,28.53
2019-06-10T11:09:36.124Z,28.05
2019-06-10T11:12:06.249Z,29.86
2019-06-10T11:14:36.726Z,27.37
2019-06-10T11:17:06.846Z,26.31
2019-06-10T11:19:36.967Z,27.47
2019-06-10T11:22:07.100Z,27.74
2019-06-10T11:24:41.047Z,27.32
2019-06-10T11:27:09.083Z,27.49
2019-06-10T11:29:39.232Z,27.06
2019-06-10T11:32:09.361Z,28.29
2019-06-10T11:34:39.512Z,29.91
2019-06-10T11:37:09.640Z,27.95
2019-06-10T11:39:39.852Z,27.07
2019-06-10T11:42:09.984Z,26.13
2019-06-10T11:44:42.388Z,27.01
2019-06-10T11:47:13.141Z,27.45
2019-06-10T11:49:43.610Z,27.99
2019-06-10T11:52:13.818Z,27.82
2019-06-10T11:54:55.802Z,27.04
2019-06-10T11:57:16.140Z,26.83
2019-06-10T11:59:46.315Z,27.60
2019-06-10T12:02:16.536Z,27.82
2019-06-10T12:04:46.729Z,27.78
2019-06-10T12:07:16.878Z,27.08
2019-06-10T12:09:47.068Z,27.43
2019-06-10T12:12:17.313Z,26.78
2019-06-10T12:14:47.462Z,27.60
2019-06-10T12:17:34.793Z,28.12
2019-06-10T12:19:49.795Z,27.54
2019-06-10T12:22:22.550Z,27.39
2019-06-10T12:25:18.813Z,28.02
2019-06-10T12:27:23.711Z,27.44
2019-06-10T12:29:56.298Z,27.07
2019-06-10T12:32:25.686Z,27.51
2019-06-10T12:34:58.044Z,28.47
2019-06-10T12:37:28.633Z,28.50
2019-06-10T12:40:00.777Z,28.07
2019-06-10T12:42:32.833Z,27.97
2019-06-10T12:45:05.943Z,28.00
2019-06-10T12:47:34.368Z,28.64
2019-06-10T12:50:05.523Z,28.50
2019-06-10T12:52:35.850Z,28.39
2019-06-10T12:55:07.389Z,28.63
2019-06-10T12:57:37.663Z,29.87
2019-06-10T13:00:19.448Z,29.67
2019-06-10T13:02:42.740Z,28.85
2019-06-10T13:05:14.835Z,29.00
2019-06-10T13:07:46.073Z,30.31
2019-06-10T13:10:24.594Z,29.26
2019-06-10T13:12:55.857Z,30.18
2019-06-10T13:15:26.232Z,29.90
2019-06-10T13:17:56.377Z,29.61
2019-06-10T13:20:26.514Z,30.08
2019-06-10T13:22:56.687Z,30.76
2019-06-10T13:25:26.944Z,31.06
2019-06-10T13:27:57.750Z,30.74
2019-06-10T13:30:28.071Z,31.37
2019-06-10T13:33:00.061Z,32.30
2019-06-10T13:35:31.719Z,31.01
2019-06-10T13:38:04.101Z,31.91
2019-06-10T13:40:33.684Z,31.34
2019-06-10T13:43:03.993Z,31.53
2019-06-10T13:45:34.120Z,31.50
2019-06-10T13:48:07.961Z,32.77
2019-06-10T13:50:36.083Z,32.16
2019-06-10T13:53:07.022Z,33.49
2019-06-10T13:55:38.544Z,32.37
2019-06-10T13:58:11.481Z,32.84
2019-06-10T14:00:46.103Z,32.50
2019-06-10T14:03:15.939Z,32.85
2019-06-10T14:05:44.952Z,32.74
2019-06-10T14:08:15.547Z,33.52
2019-06-10T14:10:45.725Z,32.46
2019-06-10T14:13:15.858Z,32.76
2019-06-10T14:15:46.255Z,33.21
2019-06-10T14:18:16.615Z,32.64
2019-06-10T14:20:46.775Z,33.69
2019-06-10T14:23:17.674Z,32.93
2019-06-10T14:25:48.031Z,33.52
2019-06-10T14:28:36.813Z,35.00
2019-06-10T14:30:50.002Z,35.08
2019-06-10T14:33:20.173Z,35.28
2019-06-10T14:35:53.100Z,34.16
2019-06-10T14:38:22.353Z,34.42
2019-06-10T14:40:52.788Z,33.35
2019-06-10T14:43:23.762Z,33.35
2019-06-10T14:45:53.877Z,34.16
2019-06-10T14:48:24.006Z,33.20
2019-06-10T14:50:54.190Z,32.95
2019-06-10T14:53:24.311Z,33.09
2019-06-10T14:55:55.254Z,33.25
2019-06-10T14:58:25.388Z,32.56
2019-06-10T15:00:55.566Z,33.87
2019-06-10T15:03:26.217Z,33.24
2019-06-10T15:05:56.444Z,34.68
2019-06-10T15:08:26.613Z,36.09
2019-06-10T15:10:56.765Z,34.14
2019-06-10T15:13:26.904Z,33.21
2019-06-10T15:15:57.072Z,34.46
2019-06-10T15:18:27.200Z,35.17
2019-06-10T15:20:57.474Z,34.16
2019-06-10T15:23:28.542Z,33.74
2019-06-10T15:26:02.557Z,34.63
2019-06-10T15:28:31.626Z,35.02
2019-06-10T15:31:02.996Z,34.72
2019-06-10T15:33:33.441Z,34.67
2019-06-10T15:36:03.591Z,34.64
2019-06-10T15:38:33.753Z,34.90
2019-06-10T15:41:04.068Z,35.11
2019-06-10T15:43:34.196Z,35.10
2019-06-10T15:46:04.435Z,34.96
2019-06-10T15:48:34.579Z,34.70
2019-06-10T15:51:04.847Z,34.02
2019-06-10T15:53:34.976Z,34.29
2019-06-10T15:56:17.979Z,33.96
2019-06-10T15:58:38.869Z,33.36
2019-06-10T16:01:09.036Z,33.90
2019-06-10T16:03:39.180Z,35.04
2019-06-10T16:06:09.326Z,34.92
2019-06-10T16:08:39.487Z,34.98
2019-06-10T16:11:09.642Z,34.82
2019-06-10T16:13:39.772Z,34.55
2019-06-10T16:16:09.948Z,35.03
2019-06-10T16:18:42.142Z,34.65
2019-06-10T16:21:13.330Z,34.44
2019-06-10T16:23:43.876Z,34.60
2019-06-10T16:26:14.924Z,34.94
2019-06-10T16:28:45.874Z,34.78
2019-06-10T16:31:16.724Z,34.84
2019-06-10T16:33:49.442Z,35.21
2019-06-10T16:36:18.985Z,34.89
2019-06-10T16:38:49.200Z,33.98
2019-06-10T16:41:19.524Z,33.72
2019-06-10T16:43:52.113Z,34.10
2019-06-10T16:46:22.433Z,35.39
2019-06-10T16:48:52.898Z,33.90
2019-06-10T16:51:23.710Z,34.48
2019-06-10T16:53:53.862Z,35.12
2019-06-10T16:56:26.015Z,34.76
2019-06-10T16:58:56.123Z,34.97
2019-06-10T17:01:28.440Z,35.26
2019-06-10T17:03:58.106Z,34.63
2019-06-10T17:06:29.953Z,33.74
2019-06-10T17:09:00.147Z,34.45
2019-06-10T17:11:30.533Z,33.71
2019-06-10T17:14:02.963Z,35.50
2019-06-10T17:16:32.581Z,35.37
2019-06-10T17:19:02.716Z,35.83
2019-06-10T17:21:34.700Z,35.39
2019-06-10T17:24:04.892Z,36.48
2019-06-10T17:26:38.066Z,36.68
2019-06-10T17:29:06.860Z,35.78
2019-06-10T17:31:37.019Z,35.53
2019-06-10T17:34:07.140Z,36.63
2019-06-10T17:36:37.295Z,35.92
2019-06-10T17:39:08.959Z,35.39
2019-06-10T17:41:39.176Z,36.16
2019-06-10T17:44:09.306Z,36.53
2019-06-10T17:46:39.440Z,36.46
2019-06-10T17:49:09.583Z,36.88
2019-06-10T17:51:39.728Z,36.61
2019-06-10T17:54:12.936Z,36.93
2019-06-10T17:56:44.242Z,37.52
2019-06-10T17:59:14.348Z,37.45
2019-06-10T18:01:44.484Z,36.66
2019-06-10T18:04:14.618Z,36.74
2019-06-10T18:06:44.840Z,37.08
2019-06-10T18:09:14.977Z,36.69
2019-06-10T18:11:45.181Z,37.07
2019-06-10T18:14:15.304Z,38.64
2019-06-10T18:16:45.455Z,39.18
2019-06-10T18:19:15.575Z,39.16
2019-06-10T18:21:45.720Z,38.72
2019-06-10T18:24:20.572Z,39.75
2019-06-10T18:26:48.776Z,39.15
2019-06-10T18:29:18.911Z,39.42
2019-06-10T18:31:49.064Z,39.68
2019-06-10T18:34:19.247Z,40.08
2019-06-10T18:36:49.379Z,40.12
2019-06-10T18:39:19.504Z,40.12
2019-06-10T18:41:49.667Z,39.88
2019-06-10T18:44:24.136Z,40.09
2019-06-10T18:46:51.627Z,40.30
2019-06-10T18:49:22.749Z,40.51
2019-06-10T18:51:53.299Z,40.34
2019-06-10T18:54:23.543Z,40.43
2019-06-10T18:56:53.867Z,40.23
2019-06-10T18:59:23.992Z,40.78
2019-06-10T19:01:54.204Z,39.90
2019-06-10T19:04:24.778Z,39.60
2019-06-10T19:06:54.916Z,39.87
2019-06-10T19:09:25.077Z,40.99
2019-06-10T19:11:55.227Z,41.14
2019-06-10T19:14:25.368Z,40.76
2019-06-10T19:16:55.689Z,40.98
2019-06-10T19:19:25.858Z,41.43
2019-06-10T19:22:05.175Z,41.10
2019-06-10T19:24:30.971Z,40.97
2019-06-10T19:27:05.310Z,40.92
2019-06-10T19:29:40.949Z,41.14
2019-06-10T19:32:06.485Z,41.20
2019-06-10T19:34:37.488Z,41.41
2019-06-10T19:37:07.705Z,41.81
2019-06-10T19:39:44.220Z,42.41
2019-06-10T19:42:09.696Z,43.04
2019-06-10T19:44:43.178Z,43.46
2019-06-10T19:47:13.157Z,43.22
2019-06-10T19:49:44.862Z,43.35
2019-06-10T19:52:15.253Z,43.33
2019-06-10T19:54:46.478Z,43.63
2019-06-10T19:57:16.619Z,43.91
2019-06-10T20:00:03.572Z,44.20
2019-06-10T20:02:22.355Z,44.97
2019-06-10T20:04:52.913Z,45.49
2019-06-10T20:07:24.184Z,45.21
2019-06-10T20:09:54.327Z,45.21
2019-06-10T20:12:24.471Z,45.17
2019-06-10T20:14:56.803Z,45.24
2019-06-10T20:17:26.534Z,45.55
2019-06-10T20:19:56.687Z,45.62
2019-06-10T20:22:26.971Z,45.70
2019-06-10T20:24:57.129Z,46.34
2019-06-10T20:27:27.447Z,46.78
2019-06-10T20:30:07.848Z,47.04
2019-06-10T20:32:29.388Z,47.51
2019-06-10T20:35:02.788Z,47.62
2019-06-10T20:37:32.651Z,47.78
2019-06-10T20:40:03.565Z,48.06
2019-06-10T20:42:34.121Z,48.47
2019-06-10T20:45:05.155Z,48.97
2019-06-10T20:47:35.416Z,49.08
2019-06-10T20:50:05.588Z,49.34
2019-06-10T20:52:35.973Z,49.49
2019-06-10T20:55:06.703Z,49.58
2019-06-10T20:57:50.072Z,49.70
2019-06-10T21:00:19.704Z,49.87
2019-06-10T21:02:45.566Z,49.98
2019-06-10T21:05:14.892Z,50.06
2019-06-10T21:07:47.231Z,50.17
2019-06-10T21:10:22.300Z,50.41
2019-06-10T21:12:52.584Z,50.49
2019-06-10T21:15:22.903Z,50.65
2019-06-10T21:17:53.116Z,51.02
2019-06-10T21:20:23.244Z,51.17
2019-06-10T21:22:53.629Z,51.14
2019-06-10T21:25:23.815Z,51.39
2019-06-10T21:27:54.247Z,51.38
2019-06-10T21:30:37.637Z,51.61
2019-06-10T21:32:56.325Z,51.68
2019-06-10T21:35:26.448Z,51.91
2019-06-10T21:37:56.687Z,52.14
2019-06-10T21:40:26.807Z,52.33
2019-06-10T21:42:57.077Z,52.68
2019-06-10T21:45:27.232Z,53.04
2019-06-10T21:47:57.364Z,53.08
2019-06-10T21:50:27.481Z,53.13
2019-06-10T21:52:57.613Z,53.33
2019-06-10T21:55:27.730Z,53.68
2019-06-10T21:57:57.871Z,54.15
2019-06-10T22:00:52.699Z,54.19
2019-06-10T22:03:12.728Z,54.20
2019-06-10T22:05:44.276Z,54.24
2019-06-10T22:08:15.027Z,54.36
2019-06-10T22:10:45.935Z,54.47
2019-06-10T22:13:17.258Z,54.85
2019-06-10T22:15:48.356Z,54.97
2019-06-10T22:18:18.585Z,54.94
2019-06-10T22:20:48.928Z,54.98
2019-06-10T22:23:19.169Z,55.14
2019-06-10T22:25:49.321Z,55.22
2019-06-10T22:28:19.548Z,55.45
2019-06-10T22:30:49.652Z,55.62
2019-06-10T22:33:19.812Z,55.55
2019-06-10T22:35:54.519Z,55.45
2019-06-10T22:38:23.841Z,55.64
2019-06-10T22:40:55.763Z,55.88
2019-06-10T22:43:25.831Z,55.93
2019-06-10T22:45:57.240Z,56.04
2019-06-10T22:48:27.466Z,56.25
2019-06-10T22:50:57.637Z,56.34
2019-06-10T22:53:27.788Z,56.52
2019-06-10T22:55:59.246Z,56.55
2019-06-10T22:58:30.530Z,56.57
2019-06-10T23:01:00.653Z,56.58
2019-06-10T23:03:30.795Z,56.73
2019-06-10T23:06:02.587Z,56.82
2019-06-10T23:08:33.511Z,57.02
2019-06-10T23:11:04.579Z,57.24
2019-06-10T23:13:34.817Z,57.41
2019-06-10T23:16:05.066Z,58.05
2019-06-10T23:18:35.239Z,57.97
2019-06-10T23:21:05.385Z,57.84
2019-06-10T23:23:35.498Z,57.66
2019-06-10T23:26:05.619Z,58.00
2019-06-10T23:28:35.840Z,58.00
2019-06-10T23:31:06.102Z,58.16
2019-06-10T23:33:36.298Z,58.13
2019-06-10T23:36:07.419Z,58.12
2019-06-10T23:38:37.563Z,58.48
2019-06-10T23:41:07.696Z,58.57
2019-06-10T23:43:37.847Z,58.51
2019-06-10T23:46:07.978Z,58.28
2019-06-10T23:48:38.134Z,58.21
2019-06-10T23:51:08.255Z,58.46
2019-06-10T23:53:38.419Z,58.90
2019-06-10T23:56:08.540Z,58.49
2019-06-10T23:58:38.691Z,58.42
